sensor_id;sensor_type;location;lat;lon;timestamp;pressure;altitude;pressure_sealevel;temperature;humidity
8298;BME280;4187;42.778;23.242;2022-08-03T00:00:54;95314.34;;;18.15;100.00
8298;BME280;4187;42.778;23.242;2022-08-03T00:03:21;95310.56;;;18.10;100.00
8298;BME280;4187;42.778;23.242;2022-08-03T00:05:48;95316.75;;;18.10;100.00
8298;BME280;4187;42.778;23.242;2022-08-03T00:08:15;95312.63;;;18.08;100.00
8298;BME280;4187;42.778;23.242;2022-08-03T00:10:42;95319.16;;;18.05;100.00
8298;BME280;4187;42.778;23.242;2022-08-03T00:13:09;95312.53;;;18.01;100.00
8298;BME280;4187;42.778;23.242;2022-08-03T00:15:39;95309.69;;;18.03;100.00
8298;BME280;4187;42.778;23.242;2022-08-03T00:18:06;95311.72;;;18.01;100.00
8298;BME280;4187;42.778;23.242;2022-08-03T00:20:34;95309.69;;;18.03;100.00
8298;BME280;4187;42.778;23.242;2022-08-03T00:23:00;95313.56;;;18.00;100.00
8298;BME280;4187;42.778;23.242;2022-08-03T00:25:27;95314.00;;;18.04;100.00
8298;BME280;4187;42.778;23.242;2022-08-03T00:27:54;95308.28;;;18.07;100.00
8298;BME280;4187;42.778;23.242;2022-08-03T00:30:21;95312.88;;;18.13;100.00
8298;BME280;4187;42.778;23.242;2022-08-03T00:32:49;95311.22;;;18.12;100.00
8298;BME280;4187;42.778;23.242;2022-08-03T00:35:16;95316.94;;;18.09;100.00
8298;BME280;4187;42.778;23.242;2022-08-03T00:37:43;95317.88;;;18.01;100.00
8298;BME280;4187;42.778;23.242;2022-08-03T00:40:11;95318.47;;;17.97;100.00
8298;BME280;4187;42.778;23.242;2022-08-03T00:42:51;95321.88;;;17.90;100.00
8298;BME280;4187;42.778;23.242;2022-08-03T00:45:20;95318.13;;;17.85;100.00
8298;BME280;4187;42.778;23.242;2022-08-03T00:47:49;95295.03;;;17.77;100.00
8298;BME280;4187;42.778;23.242;2022-08-03T00:50:17;95284.28;;;17.71;100.00
8298;BME280;4187;42.778;23.242;2022-08-03T00:52:45;95307.63;;;17.83;100.00
8298;BME280;4187;42.778;23.242;2022-08-03T00:55:12;95308.47;;;17.84;100.00
8298;BME280;4187;42.778;23.242;2022-08-03T00:57:41;95313.34;;;17.80;100.00
8298;BME280;4187;42.778;23.242;2022-08-03T01:00:10;95307.19;;;17.80;100.00
8298;BME280;4187;42.778;23.242;2022-08-03T01:02:38;95306.81;;;17.83;100.00
8298;BME280;4187;42.778;23.242;2022-08-03T01:05:08;95311.69;;;17.79;100.00
8298;BME280;4187;42.778;23.242;2022-08-03T01:07:40;95305.09;;;17.75;100.00
8298;BME280;4187;42.778;23.242;2022-08-03T01:10:14;95316.88;;;17.66;100.00
8298;BME280;4187;42.778;23.242;2022-08-03T01:12:49;95304.00;;;17.70;100.00
8298;BME280;4187;42.778;23.242;2022-08-03T01:15:24;95304.00;;;17.70;100.00
8298;BME280;4187;42.778;23.242;2022-08-03T01:17:55;95306.78;;;17.62;100.00
8298;BME280;4187;42.778;23.242;2022-08-03T01:20:26;95303.53;;;17.52;100.00
8298;BME280;4187;42.778;23.242;2022-08-03T01:23:05;95304.44;;;17.44;100.00
8298;BME280;4187;42.778;23.242;2022-08-03T01:25:54;95301.25;;;17.34;100.00
8298;BME280;4187;42.778;23.242;2022-08-03T01:31:18;95300.06;;;17.22;100.00
8298;BME280;4187;42.778;23.242;2022-08-03T01:33:51;95293.44;;;17.18;100.00
8298;BME280;4187;42.778;23.242;2022-08-03T01:36:22;95299.78;;;17.17;100.00
8298;BME280;4187;42.778;23.242;2022-08-03T01:38:54;95299.50;;;17.12;100.00
8298;BME280;4187;42.778;23.242;2022-08-03T01:41:25;95306.31;;;17.14;100.00
8298;BME280;4187;42.778;23.242;2022-08-03T01:43:55;95304.19;;;16.95;100.00
8298;BME280;4187;42.778;23.242;2022-08-03T01:46:25;95307.97;;;16.86;100.00
8298;BME280;4187;42.778;23.242;2022-08-03T01:48:54;95248.78;;;16.39;100.00
8298;BME280;4187;42.778;23.242;2022-08-03T01:51:21;95313.63;;;16.68;100.00
8298;BME280;4187;42.778;23.242;2022-08-03T01:53:49;95312.22;;;16.58;100.00
8298;BME280;4187;42.778;23.242;2022-08-03T01:56:19;95316.91;;;16.56;100.00
8298;BME280;4187;42.778;23.242;2022-08-03T01:58:48;95307.44;;;16.53;100.00
8298;BME280;4187;42.778;23.242;2022-08-03T02:01:17;95313.41;;;16.55;100.00
8298;BME280;4187;42.778;23.242;2022-08-03T02:03:46;95313.06;;;16.58;100.00
8298;BME280;4187;42.778;23.242;2022-08-03T02:06:16;95311.41;;;16.57;100.00
8298;BME280;4187;42.778;23.242;2022-08-03T02:08:47;95292.06;;;16.41;100.00
8298;BME280;4187;42.778;23.242;2022-08-03T02:11:14;95310.31;;;16.44;100.00
8298;BME280;4187;42.778;23.242;2022-08-03T02:13:42;95314.00;;;16.43;100.00
8298;BME280;4187;42.778;23.242;2022-08-03T02:16:10;95305.38;;;16.41;100.00
8298;BME280;4187;42.778;23.242;2022-08-03T02:18:39;95315.44;;;16.31;100.00
8298;BME280;4187;42.778;23.242;2022-08-03T02:21:09;95310.84;;;16.25;100.00
8298;BME280;4187;42.778;23.242;2022-08-03T02:23:37;95316.03;;;16.18;100.00
8298;BME280;4187;42.778;23.242;2022-08-03T02:26:08;95306.72;;;16.14;100.00
8298;BME280;4187;42.778;23.242;2022-08-03T02:28:40;95309.88;;;16.17;100.00
8298;BME280;4187;42.778;23.242;2022-08-03T02:31:17;95309.72;;;16.19;100.00
8298;BME280;4187;42.778;23.242;2022-08-03T02:33:48;95296.13;;;16.06;100.00
8298;BME280;4187;42.778;23.242;2022-08-03T02:36:19;95307.69;;;16.21;100.00
8298;BME280;4187;42.778;23.242;2022-08-03T02:38:51;95307.69;;;16.21;100.00
8298;BME280;4187;42.778;23.242;2022-08-03T02:41:23;95270.59;;;15.97;100.00
8298;BME280;4187;42.778;23.242;2022-08-03T02:43:53;95307.34;;;16.24;100.00
8298;BME280;4187;42.778;23.242;2022-08-03T02:46:24;95289.75;;;16.15;100.00
8298;BME280;4187;42.778;23.242;2022-08-03T02:48:54;95306.16;;;16.27;100.00
8298;BME280;4187;42.778;23.242;2022-08-03T02:51:24;95282.25;;;16.19;100.00
8298;BME280;4187;42.778;23.242;2022-08-03T02:53:54;95232.44;;;15.82;100.00
8298;BME280;4187;42.778;23.242;2022-08-03T02:56:23;95309.75;;;16.34;100.00
8298;BME280;4187;42.778;23.242;2022-08-03T02:58:51;95316.38;;;16.38;100.00
8298;BME280;4187;42.778;23.242;2022-08-03T03:01:19;95321.22;;;16.34;100.00
8298;BME280;4187;42.778;23.242;2022-08-03T03:03:48;95319.13;;;16.30;100.00
8298;BME280;4187;42.778;23.242;2022-08-03T03:06:16;95319.91;;;16.30;100.00
8298;BME280;4187;42.778;23.242;2022-08-03T03:08:45;95316.91;;;16.33;100.00
8298;BME280;4187;42.778;23.242;2022-08-03T03:11:14;95334.19;;;16.37;100.00
8298;BME280;4187;42.778;23.242;2022-08-03T03:13:41;95304.69;;;16.24;100.00
8298;BME280;4187;42.778;23.242;2022-08-03T03:16:11;95329.94;;;16.28;100.00
8298;BME280;4187;42.778;23.242;2022-08-03T03:18:38;95326.81;;;16.25;100.00
8298;BME280;4187;42.778;23.242;2022-08-03T03:21:07;95326.34;;;16.21;100.00
8298;BME280;4187;42.778;23.242;2022-08-03T03:23:36;95326.34;;;16.21;100.00
8298;BME280;4187;42.778;23.242;2022-08-03T03:26:05;95333.50;;;16.21;100.00
8298;BME280;4187;42.778;23.242;2022-08-03T03:28:34;95334.03;;;16.16;100.00
8298;BME280;4187;42.778;23.242;2022-08-03T03:31:03;95336.34;;;16.19;100.00
8298;BME280;4187;42.778;23.242;2022-08-03T03:33:32;95336.34;;;16.19;100.00
8298;BME280;4187;42.778;23.242;2022-08-03T03:35:59;95339.00;;;16.19;100.00
8298;BME280;4187;42.778;23.242;2022-08-03T03:38:27;95338.28;;;16.25;100.00
8298;BME280;4187;42.778;23.242;2022-08-03T03:40:54;95340.78;;;16.27;100.00
8298;BME280;4187;42.778;23.242;2022-08-03T03:43:23;95352.19;;;16.35;100.00
8298;BME280;4187;42.778;23.242;2022-08-03T03:45:50;95348.50;;;16.36;100.00
8298;BME280;4187;42.778;23.242;2022-08-03T03:48:18;95354.47;;;16.38;100.00
8298;BME280;4187;42.778;23.242;2022-08-03T03:50:45;95353.84;;;16.36;100.00
8298;BME280;4187;42.778;23.242;2022-08-03T03:53:13;95356.50;;;16.36;100.00
8298;BME280;4187;42.778;23.242;2022-08-03T03:55:40;95352.84;;;16.37;100.00
8298;BME280;4187;42.778;23.242;2022-08-03T03:58:07;95354.03;;;16.35;100.00
8298;BME280;4187;42.778;23.242;2022-08-03T04:00:36;95360.47;;;16.17;100.00
8298;BME280;4187;42.778;23.242;2022-08-03T04:03:03;95365.16;;;15.85;100.00
8298;BME280;4187;42.778;23.242;2022-08-03T04:05:29;95359.88;;;15.46;100.00
8298;BME280;4187;42.778;23.242;2022-08-03T04:08:31;95356.44;;;15.21;100.00
8298;BME280;4187;42.778;23.242;2022-08-03T04:11:37;95353.00;;;15.05;100.00
8298;BME280;4187;42.778;23.242;2022-08-03T04:14:07;95352.50;;;15.01;100.00
8298;BME280;4187;42.778;23.242;2022-08-03T04:16:40;95345.69;;;14.98;100.00
8298;BME280;4187;42.778;23.242;2022-08-03T04:19:13;95318.81;;;14.85;100.00
8298;BME280;4187;42.778;23.242;2022-08-03T04:21:43;95330.91;;;15.04;100.00
8298;BME280;4187;42.778;23.242;2022-08-03T04:24:13;95359.72;;;15.31;100.00
8298;BME280;4187;42.778;23.242;2022-08-03T04:26:42;95352.69;;;15.46;100.00
8298;BME280;4187;42.778;23.242;2022-08-03T04:29:11;95351.47;;;15.65;100.00
8298;BME280;4187;42.778;23.242;2022-08-03T04:31:42;95361.34;;;15.79;100.00
8298;BME280;4187;42.778;23.242;2022-08-03T04:34:11;95371.06;;;16.03;100.00
8298;BME280;4187;42.778;23.242;2022-08-03T04:36:44;95366.28;;;16.21;100.00
8298;BME280;4187;42.778;23.242;2022-08-03T04:39:17;95362.47;;;16.38;100.00
8298;BME280;4187;42.778;23.242;2022-08-03T04:41:46;95370.50;;;16.61;100.00
8298;BME280;4187;42.778;23.242;2022-08-03T04:44:16;95373.84;;;16.78;100.00
8298;BME280;4187;42.778;23.242;2022-08-03T04:46:45;95379.03;;;16.94;100.00
8298;BME280;4187;42.778;23.242;2022-08-03T04:49:13;95368.66;;;16.99;100.00
8298;BME280;4187;42.778;23.242;2022-08-03T04:51:40;95383.84;;;17.27;100.00
8298;BME280;4187;42.778;23.242;2022-08-03T04:54:11;95387.53;;;17.41;100.00
8298;BME280;4187;42.778;23.242;2022-08-03T04:56:38;95382.91;;;17.50;100.00
8298;BME280;4187;42.778;23.242;2022-08-03T04:59:05;95389.59;;;17.54;100.00
8298;BME280;4187;42.778;23.242;2022-08-03T05:01:32;95387.81;;;17.61;100.00
8298;BME280;4187;42.778;23.242;2022-08-03T05:04:00;95390.88;;;17.72;100.00
8298;BME280;4187;42.778;23.242;2022-08-03T05:06:27;95387.72;;;17.83;100.00
8298;BME280;4187;42.778;23.242;2022-08-03T05:08:54;95375.22;;;17.84;100.00
8298;BME280;4187;42.778;23.242;2022-08-03T05:11:21;95392.09;;;18.06;100.00
8298;BME280;4187;42.778;23.242;2022-08-03T05:13:48;95406.72;;;18.24;100.00
8298;BME280;4187;42.778;23.242;2022-08-03T05:16:15;95362.88;;;18.19;100.00
8298;BME280;4187;42.778;23.242;2022-08-03T05:18:42;95403.50;;;18.50;100.00
8298;BME280;4187;42.778;23.242;2022-08-03T05:21:11;95403.38;;;18.58;100.00
8298;BME280;4187;42.778;23.242;2022-08-03T05:23:41;95415.03;;;18.72;100.00
8298;BME280;4187;42.778;23.242;2022-08-03T05:26:08;95407.47;;;18.75;100.00
8298;BME280;4187;42.778;23.242;2022-08-03T05:28:36;95381.59;;;18.82;100.00
8298;BME280;4187;42.778;23.242;2022-08-03T05:31:03;95412.13;;;19.16;100.00
8298;BME280;4187;42.778;23.242;2022-08-03T05:33:29;95416.56;;;19.30;100.00
8298;BME280;4187;42.778;23.242;2022-08-03T05:35:56;95420.09;;;19.37;100.00
8298;BME280;4187;42.778;23.242;2022-08-03T05:38:25;95423.94;;;19.49;100.00
8298;BME280;4187;42.778;23.242;2022-08-03T05:40:52;95418.28;;;19.65;100.00
8298;BME280;4187;42.778;23.242;2022-08-03T05:43:19;95421.88;;;19.85;100.00
8298;BME280;4187;42.778;23.242;2022-08-03T05:45:47;95435.09;;;19.93;100.00
8298;BME280;4187;42.778;23.242;2022-08-03T05:48:14;95415.69;;;19.85;100.00
8298;BME280;4187;42.778;23.242;2022-08-03T05:50:41;95431.25;;;20.02;100.00
8298;BME280;4187;42.778;23.242;2022-08-03T05:53:07;95438.50;;;20.08;100.00
8298;BME280;4187;42.778;23.242;2022-08-03T05:55:36;95436.44;;;20.10;100.00
8298;BME280;4187;42.778;23.242;2022-08-03T05:58:02;95423.69;;;20.19;100.00
8298;BME280;4187;42.778;23.242;2022-08-03T06:00:30;95422.31;;;20.30;100.00
8298;BME280;4187;42.778;23.242;2022-08-03T06:02:56;95434.09;;;20.35;100.00
8298;BME280;4187;42.778;23.242;2022-08-03T06:05:23;95437.81;;;20.47;100.00
8298;BME280;4187;42.778;23.242;2022-08-03T06:07:51;95439.31;;;20.63;100.00
8298;BME280;4187;42.778;23.242;2022-08-03T06:10:19;95452.97;;;20.81;100.00
8298;BME280;4187;42.778;23.242;2022-08-03T06:12:47;95445.38;;;20.98;100.00
8298;BME280;4187;42.778;23.242;2022-08-03T06:15:15;95438.38;;;21.03;100.00
8298;BME280;4187;42.778;23.242;2022-08-03T06:17:47;95449.34;;;21.28;100.00
8298;BME280;4187;42.778;23.242;2022-08-03T06:20:16;95430.34;;;21.29;100.00
8298;BME280;4187;42.778;23.242;2022-08-03T06:22:45;95447.28;;;21.63;100.00
8298;BME280;4187;42.778;23.242;2022-08-03T06:25:13;95422.69;;;21.59;100.00
8298;BME280;4187;42.778;23.242;2022-08-03T06:27:41;95454.47;;;21.95;100.00
8298;BME280;4187;42.778;23.242;2022-08-03T06:30:11;95455.47;;;22.07;100.00
8298;BME280;4187;42.778;23.242;2022-08-03T06:32:38;95456.91;;;22.16;100.00
8298;BME280;4187;42.778;23.242;2022-08-03T06:35:06;95451.47;;;22.29;100.00
8298;BME280;4187;42.778;23.242;2022-08-03T06:37:41;95459.47;;;22.49;100.00
8298;BME280;4187;42.778;23.242;2022-08-03T06:40:10;95448.25;;;22.65;100.00
8298;BME280;4187;42.778;23.242;2022-08-03T06:42:37;95440.16;;;22.65;97.46
8298;BME280;4187;42.778;23.242;2022-08-03T06:45:05;95445.41;;;22.85;98.83
8298;BME280;4187;42.778;23.242;2022-08-03T06:47:34;95442.84;;;23.03;100.00
8298;BME280;4187;42.778;23.242;2022-08-03T06:50:02;95432.41;;;23.13;99.18
8298;BME280;4187;42.778;23.242;2022-08-03T06:52:28;95443.66;;;23.28;95.76
8298;BME280;4187;42.778;23.242;2022-08-03T06:54:56;95410.31;;;23.04;93.24
8298;BME280;4187;42.778;23.242;2022-08-03T06:57:24;95445.69;;;23.39;94.68
8298;BME280;4187;42.778;23.242;2022-08-03T06:59:51;95449.53;;;23.50;92.67
8298;BME280;4187;42.778;23.242;2022-08-03T07:02:18;95428.81;;;23.50;91.88
8298;BME280;4187;42.778;23.242;2022-08-03T07:04:47;95419.91;;;23.50;91.04
8298;BME280;4187;42.778;23.242;2022-08-03T07:07:13;95440.69;;;23.67;90.99
8298;BME280;4187;42.778;23.242;2022-08-03T07:09:41;95447.59;;;23.82;93.33
8298;BME280;4187;42.778;23.242;2022-08-03T07:12:08;95409.97;;;23.68;94.40
8298;BME280;4187;42.778;23.242;2022-08-03T07:14:35;95409.88;;;23.82;88.67
8298;BME280;4187;42.778;23.242;2022-08-03T07:17:02;95358.66;;;23.39;87.75
8298;BME280;4187;42.778;23.242;2022-08-03T07:19:30;95381.84;;;23.64;89.66
8298;BME280;4187;42.778;23.242;2022-08-03T07:22:00;95418.09;;;23.87;90.13
8298;BME280;4187;42.778;23.242;2022-08-03T07:24:28;95437.56;;;24.07;91.02
8298;BME280;4187;42.778;23.242;2022-08-03T07:26:55;95431.03;;;24.21;88.82
8298;BME280;4187;42.778;23.242;2022-08-03T07:29:22;95392.88;;;24.17;89.52
8298;BME280;4187;42.778;23.242;2022-08-03T07:31:49;95424.69;;;24.45;85.32
8298;BME280;4187;42.778;23.242;2022-08-03T07:34:16;95439.41;;;24.49;80.54
8298;BME280;4187;42.778;23.242;2022-08-03T07:36:43;95443.56;;;24.63;84.33
8298;BME280;4187;42.778;23.242;2022-08-03T07:39:11;95435.59;;;24.86;88.67
8298;BME280;4187;42.778;23.242;2022-08-03T07:49:55;95434.97;;;25.67;79.60
8298;BME280;4187;42.778;23.242;2022-08-03T07:52:21;95435.00;;;25.79;82.52
8298;BME280;4187;42.778;23.242;2022-08-03T07:55:08;95444.38;;;25.88;81.23
8298;BME280;4187;42.778;23.242;2022-08-03T07:57:36;95439.91;;;26.05;82.55
8298;BME280;4187;42.778;23.242;2022-08-03T08:00:05;95438.03;;;26.17;80.52
8298;BME280;4187;42.778;23.242;2022-08-03T08:02:33;95436.34;;;26.39;78.20
8298;BME280;4187;42.778;23.242;2022-08-03T08:05:00;95436.88;;;26.64;77.37
8298;BME280;4187;42.778;23.242;2022-08-03T08:07:27;95444.94;;;26.88;75.28
8298;BME280;4187;42.778;23.242;2022-08-03T08:09:54;95445.38;;;26.96;75.75
8298;BME280;4187;42.778;23.242;2022-08-03T08:12:22;95439.34;;;27.06;74.72
8298;BME280;4187;42.778;23.242;2022-08-03T08:14:50;95444.69;;;27.17;77.21
8298;BME280;4187;42.778;23.242;2022-08-03T08:17:17;95448.66;;;27.26;72.64
8298;BME280;4187;42.778;23.242;2022-08-03T08:19:44;95440.78;;;27.25;74.41
8298;BME280;4187;42.778;23.242;2022-08-03T08:22:11;95443.41;;;27.37;70.84
8298;BME280;4187;42.778;23.242;2022-08-03T08:24:38;95447.56;;;27.56;74.19
8298;BME280;4187;42.778;23.242;2022-08-03T08:27:05;95441.44;;;27.82;73.16
8298;BME280;4187;42.778;23.242;2022-08-03T08:29:34;95438.31;;;27.90;70.99
8298;BME280;4187;42.778;23.242;2022-08-03T08:32:01;95438.09;;;27.92;75.25
8298;BME280;4187;42.778;23.242;2022-08-03T08:34:28;95433.81;;;28.12;71.34
8298;BME280;4187;42.778;23.242;2022-08-03T08:36:55;95436.53;;;28.34;71.76
8298;BME280;4187;42.778;23.242;2022-08-03T08:39:21;95430.28;;;28.55;71.58
8298;BME280;4187;42.778;23.242;2022-08-03T08:41:49;95432.03;;;28.83;68.11
8298;BME280;4187;42.778;23.242;2022-08-03T08:44:16;95431.06;;;28.94;67.56
8298;BME280;4187;42.778;23.242;2022-08-03T08:46:46;95425.63;;;28.94;63.83
8298;BME280;4187;42.778;23.242;2022-08-03T08:49:16;95435.22;;;29.01;63.05
8298;BME280;4187;42.778;23.242;2022-08-03T08:51:45;95427.13;;;29.06;62.46
8298;BME280;4187;42.778;23.242;2022-08-03T08:54:14;95420.00;;;29.22;65.22
8298;BME280;4187;42.778;23.242;2022-08-03T08:56:43;95422.09;;;29.47;66.12
8298;BME280;4187;42.778;23.242;2022-08-03T08:59:11;95426.38;;;29.70;58.59
8298;BME280;4187;42.778;23.242;2022-08-03T09:01:37;95422.63;;;29.76;57.08
8298;BME280;4187;42.778;23.242;2022-08-03T09:04:06;95420.50;;;29.83;55.20
8298;BME280;4187;42.778;23.242;2022-08-03T09:06:34;95409.34;;;29.79;57.08
8298;BME280;4187;42.778;23.242;2022-08-03T09:09:01;95411.81;;;29.81;58.09
8298;BME280;4187;42.778;23.242;2022-08-03T09:11:27;95399.22;;;29.43;57.96
8298;BME280;4187;42.778;23.242;2022-08-03T09:13:54;95410.09;;;29.43;61.32
8298;BME280;4187;42.778;23.242;2022-08-03T09:16:21;95409.66;;;29.56;62.37
8298;BME280;4187;42.778;23.242;2022-08-03T09:18:52;95402.88;;;29.58;59.63
8298;BME280;4187;42.778;23.242;2022-08-03T09:21:22;95411.84;;;29.54;60.33
8298;BME280;4187;42.778;23.242;2022-08-03T09:23:51;95409.31;;;29.47;60.57
8298;BME280;4187;42.778;23.242;2022-08-03T09:26:22;95403.91;;;29.52;60.60
8298;BME280;4187;42.778;23.242;2022-08-03T09:28:57;95411.06;;;29.58;61.21
8298;BME280;4187;42.778;23.242;2022-08-03T09:31:31;95412.25;;;29.73;60.68
8298;BME280;4187;42.778;23.242;2022-08-03T09:34:00;95395.25;;;29.55;58.54
8298;BME280;4187;42.778;23.242;2022-08-03T09:36:36;95406.34;;;29.81;62.25
8298;BME280;4187;42.778;23.242;2022-08-03T09:39:04;95407.13;;;30.13;58.17
8298;BME280;4187;42.778;23.242;2022-08-03T09:41:32;95412.50;;;30.03;57.33
8298;BME280;4187;42.778;23.242;2022-08-03T09:43:58;95404.38;;;30.08;60.65
8298;BME280;4187;42.778;23.242;2022-08-03T09:46:25;95399.38;;;30.37;59.39
8298;BME280;4187;42.778;23.242;2022-08-03T09:49:08;95399.50;;;30.67;63.06
8298;BME280;4187;42.778;23.242;2022-08-03T09:51:37;95401.75;;;30.90;56.37
8298;BME280;4187;42.778;23.242;2022-08-03T09:54:05;95378.06;;;30.96;57.22
8298;BME280;4187;42.778;23.242;2022-08-03T09:56:39;95405.38;;;31.16;57.14
8298;BME280;4187;42.778;23.242;2022-08-03T09:59:07;95399.41;;;31.29;53.37
8298;BME280;4187;42.778;23.242;2022-08-03T10:01:35;95400.47;;;31.28;57.10
8298;BME280;4187;42.778;23.242;2022-08-03T10:04:03;95399.16;;;31.41;57.81
8298;BME280;4187;42.778;23.242;2022-08-03T10:06:30;95399.19;;;31.61;58.09
8298;BME280;4187;42.778;23.242;2022-08-03T10:09:09;95396.72;;;31.84;58.68
8298;BME280;4187;42.778;23.242;2022-08-03T10:11:37;95395.31;;;32.12;57.07
8298;BME280;4187;42.778;23.242;2022-08-03T10:14:06;95392.34;;;32.14;51.81
8298;BME280;4187;42.778;23.242;2022-08-03T10:16:35;95387.66;;;32.24;56.50
8298;BME280;4187;42.778;23.242;2022-08-03T10:19:03;95390.09;;;32.36;50.23
8298;BME280;4187;42.778;23.242;2022-08-03T10:21:33;95382.66;;;32.51;54.71
8298;BME280;4187;42.778;23.242;2022-08-03T10:24:02;95382.03;;;32.75;53.89
8298;BME280;4187;42.778;23.242;2022-08-03T10:26:33;95387.25;;;32.66;55.43
8298;BME280;4187;42.778;23.242;2022-08-03T10:29:03;95379.78;;;32.87;55.00
8298;BME280;4187;42.778;23.242;2022-08-03T10:31:34;95373.91;;;33.14;52.77
8298;BME280;4187;42.778;23.242;2022-08-03T10:34:07;95377.78;;;33.07;48.31
8298;BME280;4187;42.778;23.242;2022-08-03T10:36:39;95381.28;;;33.13;51.32
8298;BME280;4187;42.778;23.242;2022-08-03T10:39:07;95365.38;;;33.25;52.33
8298;BME280;4187;42.778;23.242;2022-08-03T10:41:39;95363.94;;;33.33;48.29
8298;BME280;4187;42.778;23.242;2022-08-03T10:44:08;95377.53;;;33.43;52.06
8298;BME280;4187;42.778;23.242;2022-08-03T10:46:38;95377.44;;;33.53;50.50
8298;BME280;4187;42.778;23.242;2022-08-03T10:49:05;95378.34;;;33.43;49.88
8298;BME280;4187;42.778;23.242;2022-08-03T10:51:33;95370.19;;;33.38;48.99
8298;BME280;4187;42.778;23.242;2022-08-03T10:54:00;95329.13;;;32.99;49.37
8298;BME280;4187;42.778;23.242;2022-08-03T10:56:41;95372.44;;;33.26;51.36
8298;BME280;4187;42.778;23.242;2022-08-03T10:59:57;95367.84;;;33.22;54.25
8298;BME280;4187;42.778;23.242;2022-08-03T11:05:25;95367.38;;;33.04;53.60
8298;BME280;4187;42.778;23.242;2022-08-03T11:08:17;95363.69;;;32.80;54.53
8298;BME280;4187;42.778;23.242;2022-08-03T11:10:46;95354.47;;;32.66;54.09
8298;BME280;4187;42.778;23.242;2022-08-03T11:13:18;95359.69;;;32.47;53.75
8298;BME280;4187;42.778;23.242;2022-08-03T11:15:47;95346.44;;;32.16;55.28
8298;BME280;4187;42.778;23.242;2022-08-03T11:18:14;95328.44;;;32.00;55.63
8298;BME280;4187;42.778;23.242;2022-08-03T11:20:45;95357.41;;;31.95;53.79
8298;BME280;4187;42.778;23.242;2022-08-03T11:23:14;95348.69;;;31.83;57.15
8298;BME280;4187;42.778;23.242;2022-08-03T11:26:13;95349.47;;;31.94;56.12
8298;BME280;4187;42.778;23.242;2022-08-03T11:28:43;95348.34;;;32.15;56.26
8298;BME280;4187;42.778;23.242;2022-08-03T11:34:23;95347.31;;;32.75;55.47
8298;BME280;4187;42.778;23.242;2022-08-03T11:37:18;95353.72;;;32.99;52.50
8298;BME280;4187;42.778;23.242;2022-08-03T11:39:52;95347.31;;;33.24;55.12
8298;BME280;4187;42.778;23.242;2022-08-03T11:42:42;95343.75;;;33.24;54.23
8298;BME280;4187;42.778;23.242;2022-08-03T11:45:13;95344.78;;;33.33;55.15
8298;BME280;4187;42.778;23.242;2022-08-03T11:47:41;95323.28;;;33.16;53.00
8298;BME280;4187;42.778;23.242;2022-08-03T11:50:08;95351.66;;;33.30;52.71
8298;BME280;4187;42.778;23.242;2022-08-03T11:52:40;95351.44;;;33.22;53.99
8298;BME280;4187;42.778;23.242;2022-08-03T11:55:16;95354.53;;;33.05;52.67
8298;BME280;4187;42.778;23.242;2022-08-03T11:57:45;95346.88;;;33.07;52.85
8298;BME280;4187;42.778;23.242;2022-08-03T12:00:21;95339.78;;;33.06;50.88
8298;BME280;4187;42.778;23.242;2022-08-03T12:02:56;95324.84;;;32.83;49.33
8298;BME280;4187;42.778;23.242;2022-08-03T12:05:39;95343.47;;;32.81;53.09
8298;BME280;4187;42.778;23.242;2022-08-03T12:08:06;95341.28;;;32.78;52.64
8298;BME280;4187;42.778;23.242;2022-08-03T12:10:34;95338.00;;;32.81;53.89
8298;BME280;4187;42.778;23.242;2022-08-03T12:13:02;95331.34;;;32.97;52.10
8298;BME280;4187;42.778;23.242;2022-08-03T12:15:35;95328.84;;;33.06;52.55
8298;BME280;4187;42.778;23.242;2022-08-03T12:18:11;95330.75;;;33.00;48.85
8298;BME280;4187;42.778;23.242;2022-08-03T12:20:38;95323.63;;;33.04;49.59
8298;BME280;4187;42.778;23.242;2022-08-03T12:23:05;95303.16;;;32.97;49.65
8298;BME280;4187;42.778;23.242;2022-08-03T12:25:35;95320.91;;;32.99;47.65
8298;BME280;4187;42.778;23.242;2022-08-03T12:28:08;95320.56;;;32.67;48.33
8298;BME280;4187;42.778;23.242;2022-08-03T12:30:36;95313.81;;;32.55;50.07
8298;BME280;4187;42.778;23.242;2022-08-03T12:33:18;95314.66;;;32.40;52.01
8298;BME280;4187;42.778;23.242;2022-08-03T12:35:49;95307.31;;;32.35;52.94
8298;BME280;4187;42.778;23.242;2022-08-03T12:38:21;95312.00;;;32.30;51.88
8298;BME280;4187;42.778;23.242;2022-08-03T12:40:56;95305.38;;;32.41;52.90
8298;BME280;4187;42.778;23.242;2022-08-03T12:43:23;95311.09;;;32.44;53.83
8298;BME280;4187;42.778;23.242;2022-08-03T12:46:06;95306.19;;;32.46;56.31
8298;BME280;4187;42.778;23.242;2022-08-03T12:48:33;95311.88;;;32.55;56.01
8298;BME280;4187;42.778;23.242;2022-08-03T12:51:07;95300.72;;;32.46;49.31
8298;BME280;4187;42.778;23.242;2022-08-03T12:53:35;95305.41;;;32.31;50.26
8298;BME280;4187;42.778;23.242;2022-08-03T12:56:03;95295.34;;;32.21;53.95
8298;BME280;4187;42.778;23.242;2022-08-03T12:58:32;95300.56;;;32.18;52.58
8298;BME280;4187;42.778;23.242;2022-08-03T13:01:01;95291.81;;;32.21;52.96
8298;BME280;4187;42.778;23.242;2022-08-03T13:03:38;95282.78;;;32.20;50.84
8298;BME280;4187;42.778;23.242;2022-08-03T13:06:10;95289.09;;;32.16;52.77
8298;BME280;4187;42.778;23.242;2022-08-03T13:08:37;95289.41;;;31.99;50.48
8298;BME280;4187;42.778;23.242;2022-08-03T13:11:18;95292.72;;;31.86;56.59
8298;BME280;4187;42.778;23.242;2022-08-03T13:13:45;95271.22;;;31.64;59.13
8298;BME280;4187;42.778;23.242;2022-08-03T13:16:15;95288.66;;;31.73;62.51
8298;BME280;4187;42.778;23.242;2022-08-03T13:18:42;95274.72;;;31.75;61.97
8298;BME280;4187;42.778;23.242;2022-08-03T13:21:12;95285.06;;;31.83;56.38
8298;BME280;4187;42.778;23.242;2022-08-03T13:23:39;95290.81;;;31.81;56.77
8298;BME280;4187;42.778;23.242;2022-08-03T13:26:06;95283.22;;;31.73;55.30
8298;BME280;4187;42.778;23.242;2022-08-03T13:28:33;95282.41;;;31.53;53.70
8298;BME280;4187;42.778;23.242;2022-08-03T13:31:00;95284.88;;;31.54;56.52
8298;BME280;4187;42.778;23.242;2022-08-03T13:33:28;95288.16;;;31.51;56.99
8298;BME280;4187;42.778;23.242;2022-08-03T13:35:55;95276.16;;;31.52;59.03